Time;durP1;ratioP1;P1;durP2;ratioP2;P2;SDS_P1;SDS_P2;PMS_P1;PMS_P2;Temp;Humidity;BMP_temperature;BMP_pressure;BME280_temperature;BME280_humidity;BME280_pressure;Samples;Min_cycle;Max_cycle;Signal;HPM_P1;HPM_P2
2021/03/07 00:00:43;;;;;;;5.30;1.98;;;-0.20;90.00;;;;;;5071755;28;20037;-75
2021/03/07 00:03:08;;;;;;;4.28;2.20;;;-0.30;90.00;;;;;;5052866;28;20446;-75
2021/03/07 00:05:34;;;;;;;6.15;2.30;;;-0.40;90.10;;;;;;5067672;28;20033;-75
2021/03/07 00:08:00;;;;;;;7.00;2.33;;;-0.40;90.10;;;;;;5064996;28;20063;-74
2021/03/07 00:10:25;;;;;;;5.53;3.35;;;-0.50;90.20;;;;;;5062237;28;20031;-74
2021/03/07 00:12:51;;;;;;;8.40;2.35;;;-0.50;90.30;;;;;;5070268;28;20066;-74
2021/03/07 00:15:18;;;;;;;7.00;2.80;;;-0.50;90.40;;;;;;5075188;28;20036;-74
2021/03/07 00:17:45;;;;;;;5.25;2.42;;;-0.60;90.40;;;;;;5037277;28;20032;-74
2021/03/07 00:20:13;;;;;;;5.57;2.28;;;-0.60;90.50;;;;;;5069511;28;20477;-74
2021/03/07 00:22:39;;;;;;;6.70;2.83;;;-0.60;90.60;;;;;;5070311;28;20028;-74
2021/03/07 00:25:06;;;;;;;11.23;3.40;;;-0.60;90.60;;;;;;5069119;28;20028;-74
2021/03/07 00:27:32;;;;;;;4.93;2.15;;;-0.60;90.70;;;;;;5071033;28;20024;-74
2021/03/07 00:29:58;;;;;;;7.63;3.03;;;-0.60;90.70;;;;;;5076185;28;20012;-74
2021/03/07 00:32:23;;;;;;;6.65;2.00;;;-0.60;90.70;;;;;;5068197;28;20056;-74
2021/03/07 00:34:49;;;;;;;7.32;2.60;;;-0.60;90.70;;;;;;5072817;28;20036;-74
2021/03/07 00:37:15;;;;;;;5.13;2.33;;;-0.70;90.70;;;;;;5065799;28;22011;-74
2021/03/07 00:39:40;;;;;;;7.70;2.67;;;-0.70;90.80;;;;;;5071437;28;20525;-74
2021/03/07 00:42:06;;;;;;;6.18;2.55;;;-0.70;90.90;;;;;;5072685;28;20032;-74
2021/03/07 00:44:32;;;;;;;7.63;2.63;;;-0.80;90.90;;;;;;5067832;28;20017;-74
2021/03/07 00:46:57;;;;;;;8.02;2.50;;;-0.80;91.00;;;;;;5068967;28;20020;-74
2021/03/07 00:49:31;;;;;;;5.53;2.30;;;-0.80;91.00;;;;;;5074559;28;20074;-74
2021/03/07 00:51:57;;;;;;;6.32;2.40;;;-0.80;91.10;;;;;;5071996;28;20017;-74
2021/03/07 00:54:23;;;;;;;6.30;2.47;;;-0.80;91.10;;;;;;5072237;28;20115;-74
2021/03/07 00:56:49;;;;;;;8.05;2.40;;;-0.90;91.20;;;;;;5074399;28;20510;-74
2021/03/07 00:59:14;;;;;;;5.22;2.33;;;-0.80;91.40;;;;;;5071734;28;20056;-74
2021/03/07 01:01:40;;;;;;;8.73;2.47;;;-0.70;91.40;;;;;;5073841;28;20103;-74
2021/03/07 01:04:06;;;;;;;6.30;3.15;;;-0.70;91.40;;;;;;5068647;28;20478;-74
2021/03/07 01:06:32;;;;;;;7.90;3.00;;;-0.70;91.40;;;;;;5066097;28;20029;-75
2021/03/07 01:08:58;;;;;;;7.43;1.85;;;-0.70;91.30;;;;;;5063646;28;20017;-75
2021/03/07 01:11:24;;;;;;;7.43;2.30;;;-0.70;91.30;;;;;;5065257;28;20039;-74
2021/03/07 01:13:50;;;;;;;10.52;2.90;;;-0.80;91.40;;;;;;5069916;28;20028;-74
2021/03/07 01:16:16;;;;;;;8.02;2.33;;;-0.80;91.50;;;;;;5053705;28;20058;-74
2021/03/07 01:18:41;;;;;;;7.80;2.83;;;-0.90;91.50;;;;;;5071577;28;20056;-74
2021/03/07 01:21:07;;;;;;;6.43;2.55;;;-0.90;91.60;;;;;;5072501;28;20474;-74
2021/03/07 01:23:33;;;;;;;5.78;2.50;;;-0.90;91.60;;;;;;5061976;28;20036;-74
2021/03/07 01:25:59;;;;;;;6.90;2.38;;;-0.90;91.70;;;;;;5073245;28;20077;-74
2021/03/07 01:28:25;;;;;;;6.13;2.65;;;-1.00;91.70;;;;;;5071728;28;20020;-75
2021/03/07 01:30:51;;;;;;;9.77;3.45;;;-1.10;92.00;;;;;;5065178;28;20033;-75
2021/03/07 01:33:17;;;;;;;7.85;2.75;;;-1.10;91.70;;;;;;5072051;28;20032;-75
2021/03/07 01:35:42;;;;;;;5.28;2.63;;;-1.20;91.70;;;;;;5057049;28;20029;-75
2021/03/07 01:38:08;;;;;;;5.63;2.95;;;-1.20;91.90;;;;;;5068293;28;20028;-75
2021/03/07 01:40:43;;;;;;;8.52;3.00;;;-1.30;91.80;;;;;;5070170;28;20029;-75
2021/03/07 01:43:09;;;;;;;8.57;2.45;;;-1.30;91.90;;;;;;5072278;28;20504;-75
2021/03/07 01:45:35;;;;;;;5.47;2.58;;;-1.40;91.90;;;;;;5073545;28;20050;-75
2021/03/07 01:48:04;;;;;;;6.05;2.35;;;-1.40;92.00;;;;;;5052773;28;20044;-75
2021/03/07 01:50:33;;;;;;;8.13;2.22;;;-1.50;92.10;;;;;;5072239;28;20380;-75
2021/03/07 01:52:59;;;;;;;5.50;2.83;;;-1.50;92.10;;;;;;5070175;28;20027;-75
2021/03/07 01:55:28;;;;;;;5.22;2.65;;;-1.50;92.10;;;;;;5073304;28;20052;-75
2021/03/07 01:58:11;;;;;;;7.45;2.85;;;-1.50;92.20;;;;;;5071656;28;20120;-75
2021/03/07 02:00:37;;;;;;;8.00;3.03;;;-1.50;92.20;;;;;;5071445;28;20029;-75
2021/03/07 02:03:03;;;;;;;8.57;3.53;;;-1.50;92.20;;;;;;5071287;28;20035;-75
2021/03/07 02:05:29;;;;;;;9.90;3.75;;;-1.40;92.30;;;;;;5072084;28;20028;-75
2021/03/07 02:07:55;;;;;;;8.85;3.90;;;-1.40;92.20;;;;;;5052009;28;20024;-74
2021/03/07 02:10:49;;;;;;;9.32;3.67;;;-1.40;92.20;;;;;;5070789;28;20533;-74
2021/03/07 02:13:30;;;;;;;7.32;3.55;;;-1.40;92.20;;;;;;5060720;28;20044;-74
2021/03/07 02:16:05;;;;;;;12.05;2.95;;;-1.40;92.10;;;;;;5053115;28;20021;-75
2021/03/07 02:18:36;;;;;;;11.52;3.25;;;-1.50;92.10;;;;;;5070129;28;20068;-75
2021/03/07 02:21:12;;;;;;;7.18;2.92;;;-1.50;92.20;;;;;;5071107;28;20526;-75
2021/03/07 02:24:02;;;;;;;9.23;3.63;;;-1.60;92.30;;;;;;5054900;28;20066;-75
2021/03/07 02:26:28;;;;;;;10.68;3.10;;;-1.70;92.50;;;;;;5055560;28;20071;-75
2021/03/07 02:28:54;;;;;;;11.88;3.10;;;-1.70;92.30;;;;;;5067197;28;20037;-75
2021/03/07 02:31:22;;;;;;;11.43;3.80;;;-1.70;92.30;;;;;;5069665;28;20943;-75
2021/03/07 02:33:55;;;;;;;7.18;2.90;;;-1.80;92.30;;;;;;5054096;28;20027;-74
2021/03/07 02:36:24;;;;;;;6.95;2.92;;;-1.90;92.40;;;;;;5053610;28;20070;-75
2021/03/07 02:38:51;;;;;;;8.48;2.28;;;-2.00;92.50;;;;;;5052652;28;20028;-75
2021/03/07 02:41:18;;;;;;;4.22;1.80;;;-2.00;92.50;;;;;;5067697;28;20032;-75
2021/03/07 02:43:49;;;;;;;4.80;2.28;;;-2.00;92.50;;;;;;5071470;28;20498;-75
2021/03/07 02:46:17;;;;;;;9.25;3.25;;;-2.10;92.60;;;;;;5051985;28;20040;-75
2021/03/07 02:48:47;;;;;;;11.82;3.05;;;-2.10;92.70;;;;;;5064938;28;20099;-75
2021/03/07 02:51:14;;;;;;;6.97;2.78;;;-2.10;92.70;;;;;;5069911;28;20024;-75
2021/03/07 02:53:40;;;;;;;6.10;2.28;;;-2.20;92.80;;;;;;5071694;28;20517;-75
2021/03/07 02:56:12;;;;;;;7.75;2.80;;;-2.20;92.80;;;;;;5051958;28;20390;-75
2021/03/07 02:58:40;;;;;;;9.80;3.75;;;-2.20;92.80;;;;;;5070303;28;20047;-75
2021/03/07 03:01:09;;;;;;;8.45;3.28;;;-2.20;92.80;;;;;;5070715;28;20082;-75
2021/03/07 03:03:41;;;;;;;8.73;3.45;;;-2.20;92.80;;;;;;5062123;28;20375;-75
2021/03/07 03:06:09;;;;;;;9.82;4.00;;;-2.30;92.80;;;;;;5072344;28;20024;-75
2021/03/07 03:08:35;;;;;;;10.48;3.03;;;-2.30;92.80;;;;;;5067310;28;20059;-74
2021/03/07 03:11:02;;;;;;;9.63;4.05;;;-2.30;92.90;;;;;;5069148;28;20024;-75
2021/03/07 03:13:28;;;;;;;10.90;3.72;;;-2.40;92.90;;;;;;5065500;28;20033;-75
2021/03/07 03:15:54;;;;;;;8.25;2.78;;;-2.40;92.90;;;;;;5069559;28;20050;-75
2021/03/07 03:18:21;;;;;;;8.38;3.17;;;-2.40;92.90;;;;;;5069433;28;20032;-75
2021/03/07 03:20:52;;;;;;;11.13;2.88;;;-2.40;92.90;;;;;;5061612;28;20024;-75
2021/03/07 03:23:18;;;;;;;6.32;3.47;;;-2.40;93.00;;;;;;5053917;28;20040;-74
2021/03/07 03:25:47;;;;;;;12.48;3.40;;;-2.40;93.00;;;;;;5068817;28;20036;-75
2021/03/07 03:28:13;;;;;;;8.27;4.53;;;-2.40;93.00;;;;;;5071549;28;20044;-75
2021/03/07 03:30:38;;;;;;;11.70;3.78;;;-2.40;93.10;;;;;;5064655;28;20013;-74
2021/03/07 03:33:04;;;;;;;8.55;3.88;;;-2.40;93.10;;;;;;5070648;28;20112;-74
2021/03/07 03:35:30;;;;;;;10.82;4.90;;;-2.40;93.10;;;;;;5052803;28;20111;-75
2021/03/07 03:37:56;;;;;;;8.63;4.03;;;-2.40;93.20;;;;;;5068252;28;20111;-74
2021/03/07 03:40:25;;;;;;;7.82;3.83;;;-2.40;93.20;;;;;;5062441;28;20917;-75
2021/03/07 03:42:55;;;;;;;11.43;3.92;;;-2.40;93.20;;;;;;5071047;28;20565;-74
2021/03/07 03:45:22;;;;;;;14.10;4.43;;;-2.40;93.10;;;;;;5071311;28;20107;-74
2021/03/07 03:47:53;;;;;;;10.18;4.28;;;-2.40;93.10;;;;;;5068323;28;20025;-74
2021/03/07 03:50:20;;;;;;;13.20;4.38;;;-2.40;93.10;;;;;;5064131;28;20057;-75
2021/03/07 03:52:47;;;;;;;8.13;3.63;;;-2.50;93.10;;;;;;5066985;28;20444;-74
2021/03/07 03:55:17;;;;;;;8.80;3.60;;;-2.50;93.20;;;;;;5068175;28;20054;-74
2021/03/07 03:57:45;;;;;;;8.52;2.83;;;-2.50;93.20;;;;;;5069978;28;20036;-74
2021/03/07 04:00:17;;;;;;;11.75;3.90;;;-2.60;93.20;;;;;;5070902;28;20108;-74
2021/03/07 04:02:45;;;;;;;9.55;4.00;;;-2.60;93.20;;;;;;5067074;28;20125;-74
2021/03/07 04:05:12;;;;;;;14.02;4.40;;;-2.60;93.20;;;;;;5071911;28;20032;-74
2021/03/07 04:07:38;;;;;;;13.27;4.90;;;-2.60;93.30;;;;;;5064946;28;20070;-74
2021/03/07 04:10:07;;;;;;;10.15;5.35;;;-2.60;93.30;;;;;;5068947;28;20050;-74
2021/03/07 04:12:39;;;;;;;9.95;4.55;;;-2.60;93.30;;;;;;5068033;28;20116;-74
2021/03/07 04:15:06;;;;;;;12.63;4.97;;;-2.60;93.40;;;;;;5071627;28;20023;-73
2021/03/07 04:17:32;;;;;;;11.63;6.47;;;-2.60;93.30;;;;;;5064904;28;20036;-74
2021/03/07 04:19:58;;;;;;;11.90;5.70;;;-2.60;93.30;;;;;;5064011;28;20060;-75
2021/03/07 04:22:24;;;;;;;11.48;5.82;;;-2.60;93.30;;;;;;5071215;28;20090;-75
2021/03/07 04:24:50;;;;;;;12.57;6.00;;;-2.60;93.40;;;;;;5070848;28;20090;-74
2021/03/07 04:27:16;;;;;;;13.27;6.22;;;-2.60;93.40;;;;;;5070707;28;20029;-74
2021/03/07 04:29:43;;;;;;;10.45;5.63;;;-2.60;93.40;;;;;;5070359;28;20029;-74
2021/03/07 04:32:10;;;;;;;14.90;5.82;;;-2.60;93.40;;;;;;5069488;28;20082;-74
2021/03/07 04:34:36;;;;;;;15.60;6.45;;;-2.60;93.40;;;;;;5066456;28;20471;-74
2021/03/07 04:37:02;;;;;;;13.07;6.38;;;-2.60;93.40;;;;;;5059172;28;20066;-74
2021/03/07 04:39:28;;;;;;;13.52;6.05;;;-2.70;93.40;;;;;;5062499;28;20497;-74
2021/03/07 04:41:54;;;;;;;19.88;5.72;;;-2.70;93.40;;;;;;5063507;28;20029;-74
2021/03/07 04:44:19;;;;;;;14.73;6.57;;;-2.70;93.40;;;;;;5040219;28;20111;-74
2021/03/07 04:46:45;;;;;;;13.20;6.72;;;-2.80;93.50;;;;;;5063581;28;20025;-74
2021/03/07 04:49:10;;;;;;;15.15;6.93;;;-2.70;93.60;;;;;;5047424;28;20025;-74
2021/03/07 04:51:36;;;;;;;12.23;6.70;;;-2.80;93.60;;;;;;5043528;28;20090;-74
2021/03/07 04:54:02;;;;;;;15.52;7.25;;;-2.80;93.60;;;;;;5061241;28;20126;-74
2021/03/07 04:56:31;;;;;;;19.20;7.07;;;-2.80;93.60;;;;;;5044327;28;20036;-74
2021/03/07 04:58:57;;;;;;;14.85;7.28;;;-2.80;93.60;;;;;;5068871;28;20043;-73
2021/03/07 05:01:23;;;;;;;19.55;6.72;;;-2.80;93.60;;;;;;5065775;28;20036;-73
2021/03/07 05:03:52;;;;;;;13.20;7.25;;;-2.80;93.60;;;;;;5063426;28;20024;-73
2021/03/07 05:06:18;;;;;;;13.15;6.63;;;-2.80;93.60;;;;;;5069552;28;20363;-72
2021/03/07 05:08:43;;;;;;;14.13;7.13;;;-2.80;93.60;;;;;;5066879;28;20382;-73
2021/03/07 05:11:09;;;;;;;18.40;7.38;;;-2.80;93.60;;;;;;5071860;28;20017;-73
2021/03/07 05:13:34;;;;;;;15.68;6.85;;;-2.90;93.50;;;;;;5064024;28;20036;-73
2021/03/07 05:16:00;;;;;;;19.80;8.02;;;-2.90;93.60;;;;;;5073525;28;20032;-73
2021/03/07 05:18:25;;;;;;;15.60;7.55;;;-2.90;93.60;;;;;;5069215;28;20030;-73
2021/03/07 05:20:51;;;;;;;13.32;7.15;;;-2.90;93.70;;;;;;5074279;28;20064;-73
2021/03/07 05:23:17;;;;;;;13.77;7.05;;;-2.90;93.70;;;;;;5042702;28;20033;-73
2021/03/07 05:25:42;;;;;;;17.33;7.35;;;-3.00;93.70;;;;;;5072266;28;20377;-73
2021/03/07 05:28:08;;;;;;;14.57;7.57;;;-3.00;93.70;;;;;;5071095;28;20506;-73
2021/03/07 05:30:36;;;;;;;15.25;8.20;;;-3.00;93.70;;;;;;5047035;28;20028;-74
2021/03/07 05:33:02;;;;;;;14.13;7.13;;;-3.00;93.80;;;;;;5068748;28;20027;-73
2021/03/07 05:35:27;;;;;;;18.15;7.68;;;-3.00;93.80;;;;;;5054438;28;20379;-73
2021/03/07 05:37:53;;;;;;;17.88;8.45;;;-3.00;93.80;;;;;;5073086;28;20425;-73
2021/03/07 05:40:18;;;;;;;21.40;8.90;;;-3.00;93.80;;;;;;5069938;28;20040;-73
2021/03/07 05:42:45;;;;;;;18.60;8.45;;;-3.00;93.80;;;;;;5071730;28;20058;-73
2021/03/07 05:45:11;;;;;;;19.63;9.63;;;-3.00;93.80;;;;;;5072016;28;20025;-73
2021/03/07 05:47:37;;;;;;;14.65;8.45;;;-3.00;93.80;;;;;;5070828;28;20111;-73
2021/03/07 05:50:05;;;;;;;17.13;9.02;;;-3.00;93.90;;;;;;5072657;28;20095;-73
2021/03/07 05:52:31;;;;;;;14.45;8.57;;;-2.90;93.90;;;;;;5072790;28;21673;-73
2021/03/07 05:54:57;;;;;;;14.80;7.72;;;-3.00;93.90;;;;;;5066198;28;20056;-73
2021/03/07 05:57:26;;;;;;;17.73;8.85;;;-3.00;93.90;;;;;;5071444;28;20028;-73
2021/03/07 05:59:53;;;;;;;14.88;7.82;;;-3.00;93.80;;;;;;5069315;28;20028;-73
2021/03/07 06:02:19;;;;;;;15.13;6.88;;;-3.00;93.90;;;;;;5071310;28;20390;-73
2021/03/07 06:04:52;;;;;;;15.55;8.02;;;-3.10;93.80;;;;;;5047540;28;20025;-73
2021/03/07 06:07:17;;;;;;;;;;;-3.10;93.80;;;;;;5071533;28;20493;-73
2021/03/07 06:09:43;;;;;;;15.75;7.88;;;-3.10;94.10;;;;;;5070560;28;19908;-73
2021/03/07 06:12:19;;;;;;;16.10;8.52;;;-3.20;93.80;;;;;;5068197;28;20020;-73
2021/03/07 06:14:59;;;;;;;15.05;7.68;;;-3.20;93.80;;;;;;5069092;28;21815;-73
2021/03/07 06:17:40;;;;;;;15.65;7.43;;;-3.20;93.80;;;;;;5072613;28;20255;-73
2021/03/07 06:20:08;;;;;;;14.27;7.88;;;-3.20;93.90;;;;;;5066995;28;20021;-73
2021/03/07 06:22:35;;;;;;;14.93;7.90;;;-3.20;93.90;;;;;;5062862;28;20089;-73
2021/03/07 06:25:06;;;;;;;20.13;8.70;;;-3.20;93.90;;;;;;5069742;28;20053;-73
2021/03/07 06:27:32;;;;;;;15.27;7.05;;;-3.20;93.90;;;;;;5069922;28;20021;-73
2021/03/07 06:30:08;;;;;;;17.85;8.88;;;-3.20;93.90;;;;;;5070156;28;20031;-74
2021/03/07 06:32:42;;;;;;;16.25;8.00;;;-3.10;94.00;;;;;;5062856;28;20071;-74
2021/03/07 06:35:12;;;;;;;13.38;8.00;;;-3.10;94.00;;;;;;5069518;28;20036;-74
2021/03/07 06:37:51;;;;;;;16.10;8.43;;;-3.10;94.00;;;;;;5066690;28;20024;-74
2021/03/07 06:40:38;;;;;;;17.15;8.73;;;-3.00;94.00;;;;;;5072151;28;20024;-73
2021/03/07 06:43:17;;;;;;;13.95;8.68;;;-2.90;94.00;;;;;;5072003;28;20036;-74
2021/03/07 06:45:43;;;;;;;17.10;9.30;;;-2.90;94.10;;;;;;5061330;28;20078;-74
2021/03/07 06:48:11;;;;;;;18.30;10.13;;;-2.80;94.10;;;;;;5072993;28;20016;-73
2021/03/07 06:50:55;;;;;;;16.63;10.23;;;-2.60;94.20;;;;;;5072819;28;20390;-74
2021/03/07 06:53:38;;;;;;;19.05;9.75;;;-2.50;94.10;;;;;;5066912;28;20071;-73
2021/03/07 06:56:04;;;;;;;14.57;9.57;;;-2.30;94.10;;;;;;5079113;28;20054;-74
2021/03/07 06:58:30;;;;;;;17.73;10.90;;;-2.20;94.00;;;;;;5070293;28;20134;-74
2021/03/07 07:00:56;;;;;;;18.52;10.48;;;-2.00;94.00;;;;;;5068384;28;20036;-74
2021/03/07 07:03:22;;;;;;;17.52;10.65;;;-1.90;93.80;;;;;;5065776;28;20437;-74
2021/03/07 07:05:50;;;;;;;17.02;9.98;;;-1.80;93.80;;;;;;5070154;28;20074;-72
2021/03/07 07:08:18;;;;;;;17.95;9.63;;;-1.70;93.80;;;;;;5071058;28;20107;-75
2021/03/07 07:10:56;;;;;;;16.42;10.05;;;-1.60;93.70;;;;;;5072197;28;20024;-76
2021/03/07 07:13:41;;;;;;;19.90;12.23;;;-1.50;93.60;;;;;;5043145;28;20386;-76
2021/03/07 07:16:08;;;;;;;21.35;12.35;;;-1.40;93.70;;;;;;5067794;28;20378;-75
2021/03/07 07:18:36;;;;;;;24.35;14.27;;;-1.30;93.60;;;;;;5042723;28;20072;-75
2021/03/07 07:21:10;;;;;;;25.73;13.45;;;-1.20;93.60;;;;;;5075525;28;20032;-75
2021/03/07 07:23:37;;;;;;;23.17;13.35;;;-1.10;93.60;;;;;;5070429;28;20024;-75
2021/03/07 07:26:08;;;;;;;27.38;15.43;;;-1.00;93.60;;;;;;5065969;28;20039;-77
2021/03/07 07:28:35;;;;;;;25.17;14.38;;;-0.90;93.60;;;;;;5065822;28;20363;-76
2021/03/07 07:31:18;;;;;;;25.80;14.77;;;-0.80;93.80;;;;;;5067974;28;20025;-76
2021/03/07 07:33:53;;;;;;;25.60;15.55;;;-0.70;93.50;;;;;;5058325;28;20054;-76
2021/03/07 07:36:34;;;;;;;28.05;15.27;;;-0.60;93.50;;;;;;5070920;28;20067;-77
2021/03/07 07:39:03;;;;;;;24.42;14.40;;;-0.50;93.40;;;;;;5069798;28;20073;-76
2021/03/07 07:41:33;;;;;;;26.00;16.23;;;-0.50;93.40;;;;;;5064285;28;20082;-76
2021/03/07 07:44:00;;;;;;;26.77;16.60;;;-0.40;93.50;;;;;;5065111;28;20035;-76
2021/03/07 07:46:26;;;;;;;28.35;17.23;;;-0.30;93.50;;;;;;5068164;28;20071;-76
2021/03/07 07:48:52;;;;;;;27.58;17.73;;;-0.20;93.50;;;;;;5072009;28;20052;-76
2021/03/07 07:51:36;;;;;;;29.55;16.85;;;-0.10;93.50;;;;;;5070245;28;20021;-76
2021/03/07 07:54:04;;;;;;;27.30;16.33;;;0.00;93.50;;;;;;5070941;28;20053;-75
2021/03/07 07:56:34;;;;;;;28.58;16.98;;;0.10;93.40;;;;;;5070658;28;20074;-76
2021/03/07 07:59:00;;;;;;;25.52;16.98;;;0.20;93.50;;;;;;5059861;28;20033;-76
2021/03/07 08:01:49;;;;;;;25.73;17.60;;;0.30;93.50;;;;;;5065180;28;20120;-76
2021/03/07 08:04:27;;;;;;;27.27;16.88;;;0.40;93.50;;;;;;5069836;28;20059;-74
2021/03/07 08:06:56;;;;;;;25.17;16.08;;;0.50;93.50;;;;;;5064668;28;20084;-74
2021/03/07 08:09:42;;;;;;;29.85;17.52;;;0.50;93.40;;;;;;5071656;28;20413;-74
2021/03/07 08:12:42;;;;;;;29.92;18.63;;;0.70;93.40;;;;;;5065747;28;20035;-74
2021/03/07 08:15:29;;;;;;;28.27;17.23;;;0.80;93.40;;;;;;5068820;28;20013;-75
2021/03/07 08:17:59;;;;;;;25.17;16.60;;;0.90;93.40;;;;;;5071036;28;20447;-75
2021/03/07 08:20:49;;;;;;;31.98;18.10;;;1.00;93.40;;;;;;5067769;28;20402;-74
2021/03/07 08:23:21;;;;;;;28.38;17.33;;;1.20;93.40;;;;;;5072437;28;20029;-76
2021/03/07 08:25:50;;;;;;;31.20;17.92;;;1.30;93.40;;;;;;5044033;28;20074;-75
2021/03/07 08:28:30;;;;;;;23.83;15.70;;;1.50;93.40;;;;;;5067299;28;20347;-76
2021/03/07 08:31:06;;;;;;;29.58;16.98;;;1.60;93.30;;;;;;5065847;28;20021;-76
2021/03/07 08:33:39;;;;;;;23.23;16.52;;;1.70;93.30;;;;;;5067563;28;20498;-77
2021/03/07 08:36:14;;;;;;;25.02;15.77;;;1.80;93.20;;;;;;5073867;28;20414;-78
2021/03/07 08:38:49;;;;;;;22.42;13.48;;;1.90;93.20;;;;;;5071319;28;20044;-76
2021/03/07 08:41:17;;;;;;;22.05;14.82;;;2.00;93.10;;;;;;5071591;28;20442;-78
2021/03/07 08:43:47;;;;;;;24.15;14.88;;;2.10;93.10;;;;;;5068058;28;20496;-74
2021/03/07 08:46:25;;;;;;;21.88;13.68;;;2.30;93.10;;;;;;5073957;28;20031;-74
2021/03/07 08:49:15;;;;;;;24.95;13.35;;;2.40;93.00;;;;;;5063765;28;20079;-74
2021/03/07 08:51:43;;;;;;;18.33;13.00;;;2.50;92.90;;;;;;5074547;28;20406;-75
2021/03/07 08:54:20;;;;;;;20.13;12.45;;;2.60;92.80;;;;;;5071914;28;20045;-78
2021/03/07 08:56:45;;;;;;;20.70;12.00;;;2.80;92.80;;;;;;5058119;28;20050;-77
2021/03/07 08:59:11;;;;;;;19.15;12.23;;;2.80;92.70;;;;;;5076213;28;20036;-77
2021/03/07 09:01:38;;;;;;;18.40;11.68;;;2.90;92.70;;;;;;5075777;28;20032;-76
2021/03/07 09:04:05;;;;;;;20.00;11.07;;;3.00;92.60;;;;;;5069805;28;20024;-78
2021/03/07 09:06:33;;;;;;;17.77;11.73;;;3.20;92.60;;;;;;5069836;28;20025;-78
2021/03/07 09:09:12;;;;;;;21.63;11.55;;;3.30;92.50;;;;;;5075613;28;20454;-76
2021/03/07 09:11:45;;;;;;;18.67;10.02;;;3.40;92.40;;;;;;5067805;28;20070;-76
2021/03/07 09:14:11;;;;;;;17.48;9.98;;;3.50;92.30;;;;;;5062983;28;20044;-76
2021/03/07 09:16:45;;;;;;;21.83;10.30;;;3.60;92.30;;;;;;5074022;28;20085;-77
2021/03/07 09:19:27;;;;;;;13.70;8.80;;;3.70;92.20;;;;;;5057286;28;20105;-76
2021/03/07 09:22:22;;;;;;;15.75;8.93;;;3.80;92.10;;;;;;5063946;28;20086;-76
2021/03/07 09:24:54;;;;;;;14.80;8.45;;;3.90;92.00;;;;;;5072002;28;20098;-76
2021/03/07 09:27:20;;;;;;;13.07;7.32;;;4.00;91.90;;;;;;5074302;28;20112;-76
2021/03/07 09:29:53;;;;;;;11.40;7.13;;;4.10;91.80;;;;;;5075400;28;20036;-76
2021/03/07 09:32:40;;;;;;;12.60;6.85;;;4.20;91.60;;;;;;5074543;28;20020;-77
2021/03/07 09:35:36;;;;;;;12.98;6.45;;;4.20;91.50;;;;;;5072867;28;20029;-76
2021/03/07 09:38:02;;;;;;;12.45;6.35;;;4.30;91.30;;;;;;5053475;28;20547;-76
2021/03/07 09:40:33;;;;;;;9.13;5.65;;;4.30;91.20;;;;;;5051024;28;20021;-76
2021/03/07 09:43:01;;;;;;;9.50;5.15;;;4.30;90.90;;;;;;5051690;28;20031;-76
2021/03/07 09:45:28;;;;;;;9.95;5.07;;;4.40;90.60;;;;;;5073170;28;20530;-75
2021/03/07 09:47:54;;;;;;;10.57;5.45;;;4.50;90.30;;;;;;5070756;28;20098;-76
2021/03/07 09:50:22;;;;;;;10.93;5.72;;;4.50;89.80;;;;;;5066762;28;20024;-76
2021/03/07 09:52:48;;;;;;;8.07;4.88;;;4.60;89.70;;;;;;5074094;28;20052;-76
2021/03/07 09:55:30;;;;;;;7.43;4.80;;;4.60;88.50;;;;;;5060851;28;20076;-74
2021/03/07 09:58:11;;;;;;;5.93;3.78;;;4.70;87.70;;;;;;5064384;28;20052;-75
2021/03/07 10:00:40;;;;;;;5.95;3.38;;;4.90;86.20;;;;;;5069695;28;20108;-74
2021/03/07 10:03:18;;;;;;;7.68;4.00;;;5.00;85.50;;;;;;5067642;28;20021;-75
2021/03/07 10:06:01;;;;;;;4.28;2.40;;;5.10;83.70;;;;;;5070110;28;20052;-74
2021/03/07 10:08:31;;;;;;;5.10;1.90;;;5.20;82.50;;;;;;5056537;28;20417;-74
2021/03/07 10:11:14;;;;;;;6.55;2.50;;;5.20;81.30;;;;;;5072578;28;20044;-74
2021/03/07 10:13:40;;;;;;;3.15;2.13;;;5.30;79.60;;;;;;5066465;28;20028;-75
2021/03/07 10:16:09;;;;;;;3.47;1.50;;;5.40;78.10;;;;;;5074462;28;20048;-75
2021/03/07 10:18:35;;;;;;;4.95;1.85;;;5.30;77.80;;;;;;5074670;28;20030;-74
2021/03/07 10:21:01;;;;;;;3.38;1.30;;;5.30;78.10;;;;;;5072710;28;20028;-75
2021/03/07 10:23:28;;;;;;;3.53;1.65;;;5.30;76.50;;;;;;5055209;28;20494;-75
2021/03/07 10:25:54;;;;;;;4.20;1.70;;;5.30;76.80;;;;;;5061972;28;20064;-75
2021/03/07 10:28:25;;;;;;;3.08;1.48;;;5.30;74.70;;;;;;5074108;28;20016;-76
2021/03/07 10:30:52;;;;;;;4.10;2.00;;;5.30;75.10;;;;;;5074038;28;20032;-76
2021/03/07 10:33:23;;;;;;;4.88;1.40;;;5.40;74.90;;;;;;5074610;28;20469;-76
2021/03/07 10:36:17;;;;;;;4.63;1.60;;;5.50;74.70;;;;;;5074038;28;20024;-76
2021/03/07 10:38:48;;;;;;;3.50;1.88;;;5.60;72.70;;;;;;5072136;28;20050;-75
2021/03/07 10:41:24;;;;;;;3.67;1.42;;;5.70;70.60;;;;;;5071789;28;20021;-76
2021/03/07 10:43:56;;;;;;;4.30;1.00;;;5.80;71.10;;;;;;5055638;28;20119;-76
2021/03/07 10:46:35;;;;;;;2.97;1.25;;;5.80;70.70;;;;;;5071345;28;20126;-75
2021/03/07 10:49:04;;;;;;;3.33;1.35;;;5.70;69.00;;;;;;5067754;28;20484;-75
2021/03/07 10:51:29;;;;;;;2.60;0.90;;;5.80;68.90;;;;;;5071262;28;20103;-76
2021/03/07 10:53:56;;;;;;;4.28;1.20;;;5.80;69.00;;;;;;5063630;28;20128;-76
2021/03/07 10:56:28;;;;;;;2.10;0.90;;;5.90;68.90;;;;;;5078982;22;20089;-94
2021/03/07 10:58:53;;;;;;;1.40;0.75;;;6.00;67.50;;;;;;5074132;28;20040;-94
2021/03/07 11:01:19;;;;;;;3.95;0.70;;;6.10;65.00;;;;;;5078906;28;20024;-94
2021/03/07 11:03:44;;;;;;;2.40;0.60;;;6.10;63.50;;;;;;5084024;28;20036;-93
2021/03/07 11:06:10;;;;;;;3.50;0.50;;;6.20;64.70;;;;;;5094231;28;20028;-94
2021/03/07 11:08:37;;;;;;;2.28;0.68;;;6.20;63.60;;;;;;5076568;28;20020;-94
2021/03/07 11:11:03;;;;;;;1.45;0.40;;;6.20;62.80;;;;;;5074675;28;20012;-95
2021/03/07 11:13:29;;;;;;;4.90;0.60;;;6.10;63.10;;;;;;5067463;28;20051;-94
2021/03/07 11:15:54;;;;;;;5.03;0.60;;;6.20;63.90;;;;;;5068036;28;20074;-91
2021/03/07 11:18:20;;;;;;;1.27;0.60;;;6.20;63.60;;;;;;5072806;28;20519;-90
2021/03/07 11:20:46;;;;;;;2.05;0.50;;;6.40;63.50;;;;;;5078534;28;20020;-91
2021/03/07 11:23:11;;;;;;;2.50;0.70;;;6.40;63.00;;;;;;5078036;28;20030;-91
2021/03/07 11:25:37;;;;;;;2.03;0.50;;;6.40;61.90;;;;;;5077838;28;20055;-92
2021/03/07 11:28:03;;;;;;;3.13;0.80;;;6.40;61.90;;;;;;5101214;28;20032;-91
2021/03/07 11:30:28;;;;;;;2.25;0.52;;;6.40;61.70;;;;;;5078648;28;20068;-90
2021/03/07 11:32:54;;;;;;;1.27;0.60;;;6.40;61.80;;;;;;5096839;28;20107;-91
2021/03/07 11:35:19;;;;;;;2.72;0.68;;;6.40;61.10;;;;;;5096131;28;20116;-90
2021/03/07 11:37:45;;;;;;;2.78;0.70;;;6.50;61.50;;;;;;5096275;28;20023;-90
2021/03/07 11:40:11;;;;;;;1.42;0.60;;;6.60;61.40;;;;;;5076287;28;20020;-90
2021/03/07 11:42:37;;;;;;;1.60;0.80;;;6.70;60.90;;;;;;5072964;28;20035;-90
2021/03/07 11:45:04;;;;;;;2.38;0.80;;;6.70;61.20;;;;;;5075481;28;20013;-91
2021/03/07 11:47:29;;;;;;;1.42;0.60;;;6.60;60.80;;;;;;5096879;28;20416;-91
2021/03/07 11:49:55;;;;;;;4.10;1.38;;;6.40;60.90;;;;;;5072814;28;20035;-90
2021/03/07 11:52:20;;;;;;;1.90;0.93;;;6.30;60.50;;;;;;5069699;28;20030;-91
2021/03/07 11:54:46;;;;;;;2.55;0.90;;;6.00;60.90;;;;;;5070693;28;20047;-92
2021/03/07 11:57:11;;;;;;;4.00;1.10;;;5.90;61.40;;;;;;5073909;28;20027;-91
2021/03/07 11:59:37;;;;;;;2.42;1.02;;;6.00;62.20;;;;;;5092573;28;20054;-92
2021/03/07 12:02:03;;;;;;;1.73;0.80;;;6.30;62.60;;;;;;5080134;28;20028;-91
2021/03/07 12:04:29;;;;;;;3.25;0.77;;;6.70;61.70;;;;;;5098908;28;20036;-92
2021/03/07 12:06:54;;;;;;;1.80;0.70;;;7.00;60.10;;;;;;5066825;28;20035;-91
2021/03/07 12:09:20;;;;;;;2.28;0.80;;;7.30;60.10;;;;;;5064716;28;20032;-93
2021/03/07 12:11:45;;;;;;;2.70;1.08;;;7.60;58.80;;;;;;5096914;28;20050;-92
2021/03/07 12:14:11;;;;;;;1.90;0.70;;;7.80;57.20;;;;;;5081725;28;20058;-92
2021/03/07 12:16:36;;;;;;;2.35;0.90;;;7.80;57.80;;;;;;5082686;28;20028;-91
2021/03/07 12:19:02;;;;;;;2.25;0.70;;;7.80;58.00;;;;;;5095188;28;20028;-93
2021/03/07 12:21:29;;;;;;;5.00;0.88;;;7.90;57.80;;;;;;5098250;28;20032;-92
2021/03/07 12:23:54;;;;;;;2.20;0.70;;;7.80;56.90;;;;;;5076882;28;20065;-94
2021/03/07 12:26:20;;;;;;;2.25;0.80;;;7.70;57.40;;;;;;5078888;28;20031;-93
2021/03/07 12:28:45;;;;;;;1.85;0.80;;;7.60;57.80;;;;;;5096635;28;20035;-92
2021/03/07 12:31:13;;;;;;;3.72;0.88;;;7.50;57.40;;;;;;5099910;28;20028;-95
2021/03/07 12:33:39;;;;;;;4.45;0.98;;;7.50;57.70;;;;;;5089277;28;20103;-94
2021/03/07 12:36:05;;;;;;;2.00;0.80;;;7.60;57.60;;;;;;5098499;28;20555;-93
2021/03/07 12:38:30;;;;;;;3.03;1.05;;;7.70;57.90;;;;;;5087858;28;20062;-93
2021/03/07 12:40:56;;;;;;;1.90;0.90;;;7.80;57.30;;;;;;5081941;28;20028;-93
2021/03/07 12:43:22;;;;;;;5.10;1.17;;;8.00;56.90;;;;;;5082470;28;20086;-93
2021/03/07 12:45:47;;;;;;;2.53;1.00;;;8.10;56.60;;;;;;5100260;28;20116;-94
2021/03/07 12:48:13;;;;;;;2.42;1.10;;;8.10;56.50;;;;;;5081138;28;20040;-94
2021/03/07 12:50:38;;;;;;;2.90;1.20;;;7.90;56.40;;;;;;5080224;28;20028;-94
2021/03/07 12:53:04;;;;;;;3.03;1.33;;;7.80;56.20;;;;;;5090829;28;20028;-93
2021/03/07 12:55:30;;;;;;;1.77;1.10;;;7.70;56.00;;;;;;5075528;28;20126;-94